Audubon, Iowa
Current Conditions -  °F | °C
As of 2:35 AM on Friday 31 Oct 2014 (Local Time) from KADU Reporting Station
Scattered Clouds Scattered Clouds  
Wind Chill: 25°   Ceiling: Unl
Heat Index: 36°   Visibility: 10mi
Dew Point: 21°   Wind: 18mph
Humidity: 56%   Direction: 350°N
Pressure: 30.41"   Gusts: 30mph
Location:  41.72°N, 94.93°W
Report Text: KADU 310735Z AUTO 35016G26KT 10SM SCT030 02/M06 A3041 RMK AO2
Loading
Personal Weather Stations






























Interactive Weather Map
Tropical Storm Tracking
New forecast layout! Learn more

10-Day Weather Forecast

Advertisements
Track Severe Weather on mobile